createdAt,value
2023-03-05T00:01:09.950Z,100681.66
2023-03-05T00:06:08.962Z,100724.25
2023-03-05T00:11:17.284Z,100650.50
2023-03-05T00:16:24.903Z,100691.28
2023-03-05T00:21:25.794Z,100610.31
2023-03-05T00:26:21.931Z,100708.69
2023-03-05T00:31:19.747Z,100542.38
2023-03-05T00:36:17.944Z,100528.75
2023-03-05T00:41:11.969Z,100602.34
2023-03-05T00:46:08.954Z,100704.53
2023-03-05T00:51:10.496Z,100586.75
2023-03-05T00:56:06.473Z,100700.50
2023-03-05T01:01:12.822Z,100559.31
2023-03-05T01:06:17.683Z,100515.31
2023-03-05T01:11:16.397Z,100468.56
2023-03-05T01:16:09.947Z,100699.13
2023-03-05T01:21:21.509Z,100627.91
2023-03-05T01:26:17.485Z,100596.28
2023-03-05T01:31:15.486Z,100492.75
2023-03-05T01:36:13.543Z,100499.84
2023-03-05T01:41:34.549Z,100499.31
2023-03-05T01:46:32.505Z,100619.81
2023-03-05T01:51:32.118Z,100564.81
2023-03-05T01:56:30.932Z,100502.41
2023-03-05T02:01:24.766Z,100633.09
2023-03-05T02:06:23.730Z,100493.56
2023-03-05T02:11:21.985Z,100511.16
2023-03-05T02:16:19.756Z,100689.13
2023-03-05T02:21:28.147Z,100645.97
2023-03-05T02:26:21.763Z,100621.09
2023-03-05T02:31:20.049Z,100438.19
2023-03-05T02:36:23.846Z,100439.88
2023-03-05T02:41:17.646Z,100575.63
2023-03-05T02:46:13.270Z,100586.97
2023-03-05T02:51:08.673Z,100468.22
2023-03-05T02:56:03.627Z,100594.34
2023-03-05T03:01:00.265Z,100613.13
2023-03-05T03:05:53.615Z,100507.88
2023-03-05T03:10:46.915Z,100672.66
2023-03-05T03:15:45.209Z,100645.06
2023-03-05T03:20:39.323Z,100478.88
2023-03-05T03:25:32.906Z,100616.72
2023-03-05T03:30:28.459Z,100569.72
2023-03-05T03:35:23.226Z,100649.31
2023-03-05T03:40:16.605Z,100570.19
2023-03-05T03:45:13.971Z,100637.63
2023-03-05T03:50:13.451Z,100685.31
2023-03-05T03:55:12.216Z,100545.13
2023-03-05T04:00:09.295Z,100635.69
2023-03-05T04:05:09.127Z,100581.31
2023-03-05T04:10:02.534Z,100600.78
2023-03-05T04:14:59.501Z,100698.78
2023-03-05T04:19:58.766Z,100460.44
2023-03-05T04:24:52.164Z,100593.53
2023-03-05T04:29:45.804Z,100498.63
2023-03-05T04:34:42.990Z,100484.31
2023-03-05T04:39:39.333Z,100694.47
2023-03-05T04:44:32.826Z,100698.91
2023-03-05T04:49:26.353Z,100586.25
2023-03-05T04:54:21.209Z,100670.75
2023-03-05T04:59:16.880Z,100489.44
2023-03-05T05:04:10.430Z,100626.00
2023-03-05T05:09:04.055Z,100488.19
2023-03-05T05:14:04.546Z,100614.47
2023-03-05T05:19:00.003Z,100536.91
2023-03-05T05:23:55.451Z,100654.38
2023-03-05T05:29:08.595Z,100553.41
2023-03-05T05:34:02.122Z,100735.72
2023-03-05T05:39:06.169Z,100609.63
2023-03-05T05:44:03.684Z,100658.41
2023-03-05T05:48:57.113Z,100512.69
2023-03-05T05:53:52.987Z,100556.56
2023-03-05T05:58:49.347Z,100642.56
2023-03-05T06:03:44.545Z,100693.41
2023-03-05T06:08:37.917Z,100593.44
2023-03-05T06:13:34.046Z,100553.47
2023-03-05T06:18:29.863Z,100561.25
2023-03-05T06:23:27.337Z,100657.97
2023-03-05T06:28:21.845Z,100664.97
2023-03-05T06:33:15.406Z,100700.50
2023-03-05T06:38:09.462Z,100667.44
2023-03-05T06:43:04.210Z,100689.34
2023-03-05T06:47:57.365Z,100723.09
2023-03-05T06:52:51.061Z,100763.41
2023-03-05T06:57:44.157Z,100750.13
2023-03-05T07:02:40.171Z,100698.28
2023-03-05T07:07:34.169Z,100782.97
2023-03-05T07:12:27.652Z,100696.38
2023-03-05T07:17:20.806Z,100788.06
2023-03-05T07:22:16.380Z,100756.69
2023-03-05T07:27:09.466Z,100767.41
2023-03-05T07:32:02.693Z,100790.31
2023-03-05T07:36:55.913Z,100782.94
2023-03-05T07:41:51.796Z,100760.56
2023-03-05T07:46:53.271Z,100748.34
2023-03-05T07:51:46.386Z,100779.75
2023-03-05T07:56:39.516Z,100722.38
2023-03-05T08:01:34.333Z,100753.28
2023-03-05T08:06:27.505Z,100721.03
2023-03-05T08:11:20.780Z,100714.50
2023-03-05T08:16:16.352Z,100756.56
2023-03-05T08:21:19.310Z,100729.75
2023-03-05T08:26:14.533Z,100755.09
2023-03-05T08:31:10.797Z,100750.91
2023-03-05T08:36:04.151Z,100662.91
2023-03-05T08:40:58.758Z,100737.13
2023-03-05T08:45:53.720Z,100742.66
2023-03-05T08:50:47.291Z,100725.63
2023-03-05T08:55:40.733Z,100731.03
2023-03-05T09:00:35.947Z,100672.28
2023-03-05T09:05:29.236Z,100688.59
2023-03-05T09:10:22.547Z,100704.75
2023-03-05T09:15:15.988Z,100670.53
2023-03-05T09:20:14.624Z,100671.75
2023-03-05T09:25:09.226Z,100684.84
2023-03-05T09:30:02.633Z,100683.56
2023-03-05T09:34:55.862Z,100670.63
2023-03-05T09:39:50.445Z,100615.00
2023-03-05T09:44:52.747Z,100656.25
2023-03-05T09:49:56.574Z,100637.16
2023-03-05T09:54:55.777Z,100624.13
2023-03-05T09:59:53.038Z,100606.69
2023-03-05T10:04:52.118Z,100615.78
2023-03-05T10:09:48.143Z,100408.75
2023-03-05T10:14:43.287Z,100591.50
2023-03-05T10:19:51.952Z,100613.47
2023-03-05T10:24:57.739Z,100610.72
2023-03-05T10:30:07.459Z,100558.31
2023-03-05T10:35:15.635Z,100589.69
2023-03-05T10:40:20.121Z,100579.13
2023-03-05T10:45:18.719Z,100557.47
2023-03-05T10:50:19.087Z,100547.13
2023-03-05T10:55:17.845Z,100562.75
2023-03-05T11:00:21.459Z,100570.28
2023-03-05T11:05:40.245Z,100548.31
2023-03-05T11:10:34.082Z,100490.50
2023-03-05T11:15:32.226Z,100517.91
2023-03-05T11:20:34.050Z,100538.34
2023-03-05T11:25:27.368Z,100534.63
2023-03-05T11:30:22.491Z,100500.53
2023-03-05T11:35:32.889Z,100416.41
2023-03-05T11:40:29.157Z,100416.78
2023-03-05T11:45:26.224Z,100483.13
2023-03-05T11:50:24.166Z,100443.06
2023-03-05T11:55:20.657Z,100481.47
2023-03-05T12:00:19.115Z,100465.84
2023-03-05T12:05:16.341Z,100453.38
2023-03-05T12:10:17.561Z,100468.31
2023-03-05T12:15:35.043Z,100459.81
2023-03-05T12:20:40.467Z,100415.00
2023-03-05T12:25:35.286Z,100448.38
2023-03-05T12:31:00.979Z,100295.66
2023-03-05T12:35:54.402Z,100300.75
2023-03-05T12:40:47.773Z,100432.03
2023-03-05T12:45:43.842Z,100391.84
2023-03-05T12:50:54.919Z,100366.75
2023-03-05T12:55:57.826Z,100416.16
2023-03-05T13:00:56.530Z,100342.31
2023-03-05T13:05:52.156Z,100394.91
2023-03-05T13:10:54.097Z,100387.25
2023-03-05T13:15:54.876Z,100329.03
2023-03-05T13:20:52.282Z,100338.25
2023-03-05T13:25:46.667Z,100422.84
2023-03-05T13:30:39.907Z,100399.16
2023-03-05T13:35:35.211Z,100412.94
2023-03-05T13:40:34.076Z,100387.31
2023-03-05T13:45:30.163Z,100409.72
2023-03-05T13:50:27.218Z,100372.91
2023-03-05T13:55:28.688Z,100389.09
2023-03-05T14:00:31.603Z,100373.03
2023-03-05T14:05:26.374Z,100371.84
2023-03-05T14:10:36.053Z,100311.22
2023-03-05T14:15:31.919Z,100258.53
2023-03-05T14:20:28.633Z,100296.69
2023-03-05T14:25:33.980Z,100363.00
2023-03-05T14:30:31.011Z,100286.03
2023-03-05T14:35:26.833Z,100194.69
2023-03-05T14:40:27.017Z,100376.44
2023-03-05T14:45:23.830Z,100201.88
2023-03-05T14:50:18.599Z,100340.00
2023-03-05T14:55:19.140Z,100375.59
2023-03-05T15:00:17.035Z,100369.31
2023-03-05T15:05:11.950Z,100374.34
2023-03-05T15:10:06.470Z,100193.00
2023-03-05T15:14:59.897Z,100365.09
2023-03-05T15:19:55.151Z,100362.97
2023-03-05T15:24:49.874Z,100338.47
2023-03-05T15:29:43.082Z,100372.75
2023-03-05T15:34:36.567Z,100328.13
2023-03-05T15:39:30.068Z,100364.66
2023-03-05T15:44:25.473Z,100269.13
2023-03-05T15:49:19.298Z,100375.06
2023-03-05T15:54:12.852Z,100290.53
2023-03-05T15:59:06.375Z,100365.69
2023-03-05T16:04:01.087Z,100372.19
2023-03-05T16:09:03.103Z,100328.22
2023-03-05T16:14:37.992Z,100378.56
2023-03-05T16:19:42.781Z,100183.25
2023-03-05T16:25:01.181Z,100159.50
2023-03-05T16:30:11.402Z,100251.91
2023-03-05T16:41:11.248Z,100213.50
2023-03-05T16:46:13.996Z,100385.88
2023-03-05T16:52:17.720Z,100382.94
2023-03-05T17:03:31.799Z,100388.66
2023-03-05T17:08:30.714Z,100355.22
2023-03-05T17:13:25.688Z,100326.69
2023-03-05T17:19:28.725Z,100400.84
2023-03-05T17:31:40.013Z,100205.34
2023-03-05T17:49:17.244Z,100418.53
2023-03-05T17:54:12.658Z,100429.66
2023-03-05T17:59:13.552Z,100253.06
2023-03-05T18:04:29.022Z,100433.63
2023-03-05T18:16:43.477Z,100372.22
2023-03-05T18:34:18.179Z,100244.16
2023-03-05T18:39:25.514Z,100252.47
2023-03-05T18:50:18.039Z,100245.22
2023-03-05T18:55:28.440Z,100435.41
2023-03-05T19:00:31.911Z,100416.94
2023-03-05T19:06:02.333Z,100367.75
2023-03-05T19:12:17.634Z,100319.88
2023-03-05T19:17:34.992Z,100506.69
2023-03-05T19:22:32.858Z,100517.41
2023-03-05T19:27:30.550Z,100332.50
2023-03-05T19:32:37.915Z,100523.75
2023-03-05T19:37:33.320Z,100324.50
2023-03-05T19:42:28.780Z,100333.31
2023-03-05T19:47:49.828Z,100349.41
2023-03-05T19:52:47.522Z,100346.63
2023-03-05T19:57:42.525Z,100455.00
2023-03-05T20:02:38.658Z,100549.03
2023-03-05T20:07:37.048Z,100546.16
2023-03-05T20:12:30.749Z,100376.19
2023-03-05T20:17:28.608Z,100359.69
2023-03-05T20:22:23.203Z,100486.38
2023-03-05T20:27:20.252Z,100502.63
2023-03-05T20:32:15.236Z,100475.28
2023-03-05T20:37:10.008Z,100364.41
2023-03-05T20:42:07.625Z,100491.63
2023-03-05T20:47:44.782Z,100548.84
2023-03-05T20:52:46.017Z,100351.09
2023-03-05T20:58:16.424Z,100569.13
2023-03-05T21:10:27.201Z,100521.56
2023-03-05T21:40:12.503Z,100482.38
2023-03-05T21:45:40.635Z,100527.75
2023-03-05T21:51:10.774Z,100384.41
2023-03-05T21:57:19.257Z,100586.34
2023-03-05T22:03:16.610Z,100417.84
2023-03-05T22:08:36.536Z,100337.13
2023-03-05T22:14:06.030Z,100530.66
2023-03-05T22:25:46.759Z,100361.88
2023-03-05T22:32:05.307Z,100580.47
2023-03-05T22:37:56.775Z,100431.00
2023-03-05T22:44:37.436Z,100581.63
2023-03-05T23:22:13.033Z,100289.56
2023-03-05T23:48:15.769Z,100561.38
